KLGB

Long Beach / Daugherty Field / Airport

Long Beach, California, USA
METAR KLGB 171853Z VRB03KT 4SM HZ CLR 27/01 A3006 RMK AO2 SLP179 T02670006 $
Observed Flight Rules
Oct-17 @ 18:53 UTC (9 minutes ago) Marginal Visual Flight Rules
Wind Visibility Clouds Conditions
Variable at 3 knots 4 miles
  • Clear skies
  • Haze
Temperatures Readings
Current 27°C / 81°F
Dewpoint 1°C / 34°F
Humidity 18%
Altimeter 30.06" Hg
Pressure 1017.9 hPa
Elevation 10
METAR KLGB 171853Z VRB03KT 4SM HZ CLR 27/01 A3006 RMK AO2 SLP179 T02670006 $
Observed Flight Rules
Oct-17 @ 18:53 UTC
(9 minutes ago)
MVFR
Wind Visibility
Variable at 3 knots 4 miles
Clouds
  • Clear skies
Conditions
  • Haze
Temperature Dewpoint
27°C / 81°F 1°C / 34°F
Humidity Altimeter Pressure
18% 30.06" Hg 1017.9 hPa